sensor_id;sensor_type;location;lat;lon;timestamp;P1;durP1;ratioP1;P2;durP2;ratioP2
43676;SDS011;29275;48.800;18.102;2022-12-11T00:02:23;4.20;;;2.17;;
43676;SDS011;29275;48.800;18.102;2022-12-11T00:05:25;5.47;;;2.33;;
43676;SDS011;29275;48.800;18.102;2022-12-11T00:08:27;6.85;;;2.33;;
43676;SDS011;29275;48.800;18.102;2022-12-11T00:11:32;2.63;;;1.15;;
43676;SDS011;29275;48.800;18.102;2022-12-11T00:14:36;3.45;;;1.33;;
43676;SDS011;29275;48.800;18.102;2022-12-11T00:17:38;3.97;;;2.63;;
43676;SDS011;29275;48.800;18.102;2022-12-11T00:20:40;4.82;;;2.40;;
43676;SDS011;29275;48.800;18.102;2022-12-11T00:23:42;3.72;;;2.20;;
43676;SDS011;29275;48.800;18.102;2022-12-11T00:26:44;1.88;;;1.30;;
43676;SDS011;29275;48.800;18.102;2022-12-11T00:29:48;2.75;;;1.92;;
43676;SDS011;29275;48.800;18.102;2022-12-11T00:32:53;6.60;;;2.38;;
43676;SDS011;29275;48.800;18.102;2022-12-11T00:35:55;6.10;;;2.00;;
43676;SDS011;29275;48.800;18.102;2022-12-11T00:38:57;2.63;;;0.90;;
43676;SDS011;29275;48.800;18.102;2022-12-11T00:41:59;4.53;;;2.83;;
43676;SDS011;29275;48.800;18.102;2022-12-11T00:45:01;2.33;;;1.58;;
43676;SDS011;29275;48.800;18.102;2022-12-11T00:48:03;4.78;;;2.40;;
43676;SDS011;29275;48.800;18.102;2022-12-11T00:51:06;3.05;;;1.80;;
43676;SDS011;29275;48.800;18.102;2022-12-11T00:54:09;5.78;;;2.13;;
43676;SDS011;29275;48.800;18.102;2022-12-11T00:57:11;6.43;;;2.08;;
43676;SDS011;29275;48.800;18.102;2022-12-11T01:00:13;5.60;;;1.95;;
43676;SDS011;29275;48.800;18.102;2022-12-11T01:03:15;9.88;;;3.05;;
43676;SDS011;29275;48.800;18.102;2022-12-11T01:06:19;5.15;;;2.08;;
43676;SDS011;29275;48.800;18.102;2022-12-11T01:09:22;6.03;;;2.95;;
43676;SDS011;29275;48.800;18.102;2022-12-11T01:12:43;5.38;;;3.25;;
43676;SDS011;29275;48.800;18.102;2022-12-11T01:15:45;7.22;;;2.00;;
43676;SDS011;29275;48.800;18.102;2022-12-11T01:18:47;6.20;;;2.50;;
43676;SDS011;29275;48.800;18.102;2022-12-11T01:21:49;5.53;;;3.35;;
43676;SDS011;29275;48.800;18.102;2022-12-11T01:24:51;5.60;;;3.92;;
43676;SDS011;29275;48.800;18.102;2022-12-11T01:27:54;6.30;;;2.70;;
43676;SDS011;29275;48.800;18.102;2022-12-11T01:30:56;10.18;;;2.47;;
43676;SDS011;29275;48.800;18.102;2022-12-11T01:33:59;5.03;;;2.35;;
43676;SDS011;29275;48.800;18.102;2022-12-11T01:37:01;6.30;;;2.58;;
43676;SDS011;29275;48.800;18.102;2022-12-11T01:40:03;5.30;;;3.63;;
43676;SDS011;29275;48.800;18.102;2022-12-11T01:43:09;3.92;;;2.03;;
43676;SDS011;29275;48.800;18.102;2022-12-11T01:46:11;5.65;;;2.78;;
43676;SDS011;29275;48.800;18.102;2022-12-11T01:49:19;3.37;;;2.00;;
43676;SDS011;29275;48.800;18.102;2022-12-11T01:52:22;4.15;;;2.45;;
43676;SDS011;29275;48.800;18.102;2022-12-11T01:55:25;6.60;;;2.42;;
43676;SDS011;29275;48.800;18.102;2022-12-11T01:58:34;7.75;;;3.65;;
43676;SDS011;29275;48.800;18.102;2022-12-11T02:01:40;4.07;;;1.90;;
43676;SDS011;29275;48.800;18.102;2022-12-11T02:04:47;6.72;;;3.30;;
43676;SDS011;29275;48.800;18.102;2022-12-11T02:07:51;6.32;;;2.85;;
43676;SDS011;29275;48.800;18.102;2022-12-11T02:11:07;5.07;;;2.47;;
43676;SDS011;29275;48.800;18.102;2022-12-11T02:14:25;8.38;;;4.97;;
43676;SDS011;29275;48.800;18.102;2022-12-11T02:17:59;2.72;;;2.45;;
43676;SDS011;29275;48.800;18.102;2022-12-11T02:21:15;2.90;;;1.85;;
43676;SDS011;29275;48.800;18.102;2022-12-11T02:24:40;5.45;;;3.53;;
43676;SDS011;29275;48.800;18.102;2022-12-11T02:31:21;5.88;;;2.65;;
43676;SDS011;29275;48.800;18.102;2022-12-11T02:37:31;8.05;;;2.78;;
43676;SDS011;29275;48.800;18.102;2022-12-11T02:40:37;5.22;;;2.03;;
43676;SDS011;29275;48.800;18.102;2022-12-11T02:43:40;4.07;;;2.50;;
43676;SDS011;29275;48.800;18.102;2022-12-11T02:46:46;2.78;;;1.83;;
43676;SDS011;29275;48.800;18.102;2022-12-11T02:49:48;5.57;;;3.22;;
43676;SDS011;29275;48.800;18.102;2022-12-11T02:52:52;3.83;;;2.25;;
43676;SDS011;29275;48.800;18.102;2022-12-11T02:56:03;9.18;;;1.48;;
43676;SDS011;29275;48.800;18.102;2022-12-11T02:59:14;4.63;;;2.10;;
43676;SDS011;29275;48.800;18.102;2022-12-11T03:02:19;2.40;;;1.75;;
43676;SDS011;29275;48.800;18.102;2022-12-11T03:05:22;4.22;;;1.77;;
43676;SDS011;29275;48.800;18.102;2022-12-11T03:08:25;5.45;;;2.03;;
43676;SDS011;29275;48.800;18.102;2022-12-11T03:11:27;3.67;;;1.55;;
43676;SDS011;29275;48.800;18.102;2022-12-11T03:14:29;3.40;;;2.38;;
43676;SDS011;29275;48.800;18.102;2022-12-11T03:17:55;3.53;;;2.17;;
43676;SDS011;29275;48.800;18.102;2022-12-11T03:21:17;4.20;;;2.13;;
43676;SDS011;29275;48.800;18.102;2022-12-11T03:27:32;2.95;;;1.90;;
43676;SDS011;29275;48.800;18.102;2022-12-11T03:30:40;4.10;;;1.95;;
43676;SDS011;29275;48.800;18.102;2022-12-11T03:33:44;3.47;;;2.00;;
43676;SDS011;29275;48.800;18.102;2022-12-11T03:36:48;2.58;;;1.17;;
43676;SDS011;29275;48.800;18.102;2022-12-11T03:39:52;4.38;;;1.60;;
43676;SDS011;29275;48.800;18.102;2022-12-11T03:42:59;4.32;;;1.67;;
43676;SDS011;29275;48.800;18.102;2022-12-11T03:46:01;2.92;;;1.60;;
43676;SDS011;29275;48.800;18.102;2022-12-11T03:49:16;3.75;;;1.98;;
43676;SDS011;29275;48.800;18.102;2022-12-11T03:52:21;4.90;;;1.85;;
43676;SDS011;29275;48.800;18.102;2022-12-11T03:55:24;4.10;;;2.47;;
43676;SDS011;29275;48.800;18.102;2022-12-11T03:58:27;3.33;;;2.30;;
43676;SDS011;29275;48.800;18.102;2022-12-11T04:01:29;5.50;;;2.63;;
43676;SDS011;29275;48.800;18.102;2022-12-11T04:04:31;3.00;;;1.63;;
43676;SDS011;29275;48.800;18.102;2022-12-11T04:07:34;3.15;;;1.63;;
43676;SDS011;29275;48.800;18.102;2022-12-11T04:10:36;3.08;;;1.92;;
43676;SDS011;29275;48.800;18.102;2022-12-11T04:13:38;4.13;;;2.05;;
43676;SDS011;29275;48.800;18.102;2022-12-11T04:16:41;3.33;;;2.05;;
43676;SDS011;29275;48.800;18.102;2022-12-11T04:19:43;7.82;;;2.30;;
43676;SDS011;29275;48.800;18.102;2022-12-11T04:23:04;3.78;;;1.95;;
43676;SDS011;29275;48.800;18.102;2022-12-11T04:26:34;7.22;;;2.80;;
43676;SDS011;29275;48.800;18.102;2022-12-11T04:29:36;6.05;;;2.65;;
43676;SDS011;29275;48.800;18.102;2022-12-11T04:32:38;8.60;;;2.35;;
43676;SDS011;29275;48.800;18.102;2022-12-11T04:35:40;5.97;;;2.60;;
43676;SDS011;29275;48.800;18.102;2022-12-11T04:38:41;2.83;;;1.70;;
43676;SDS011;29275;48.800;18.102;2022-12-11T04:41:43;6.80;;;3.58;;
43676;SDS011;29275;48.800;18.102;2022-12-11T04:44:45;6.00;;;3.65;;
43676;SDS011;29275;48.800;18.102;2022-12-11T04:47:47;6.03;;;3.65;;
43676;SDS011;29275;48.800;18.102;2022-12-11T04:50:49;2.80;;;1.90;;
43676;SDS011;29275;48.800;18.102;2022-12-11T04:53:51;10.63;;;3.13;;
43676;SDS011;29275;48.800;18.102;2022-12-11T04:56:54;6.65;;;3.10;;
43676;SDS011;29275;48.800;18.102;2022-12-11T04:59:56;6.43;;;2.33;;
43676;SDS011;29275;48.800;18.102;2022-12-11T05:02:58;7.00;;;3.70;;
43676;SDS011;29275;48.800;18.102;2022-12-11T05:06:00;2.55;;;1.48;;
43676;SDS011;29275;48.800;18.102;2022-12-11T05:09:02;2.67;;;1.50;;
43676;SDS011;29275;48.800;18.102;2022-12-11T05:12:04;2.20;;;1.10;;
43676;SDS011;29275;48.800;18.102;2022-12-11T05:15:06;7.35;;;2.97;;
43676;SDS011;29275;48.800;18.102;2022-12-11T05:18:09;7.00;;;1.95;;
43676;SDS011;29275;48.800;18.102;2022-12-11T05:21:12;2.72;;;1.75;;
43676;SDS011;29275;48.800;18.102;2022-12-11T05:24:15;2.05;;;1.40;;
43676;SDS011;29275;48.800;18.102;2022-12-11T05:27:17;2.65;;;1.60;;
43676;SDS011;29275;48.800;18.102;2022-12-11T05:30:19;4.10;;;1.80;;
43676;SDS011;29275;48.800;18.102;2022-12-11T05:33:21;3.25;;;1.33;;
43676;SDS011;29275;48.800;18.102;2022-12-11T05:36:24;2.10;;;1.45;;
43676;SDS011;29275;48.800;18.102;2022-12-11T05:39:30;1.75;;;1.10;;
43676;SDS011;29275;48.800;18.102;2022-12-11T05:42:33;2.70;;;1.33;;
43676;SDS011;29275;48.800;18.102;2022-12-11T05:45:35;2.50;;;1.27;;
43676;SDS011;29275;48.800;18.102;2022-12-11T05:48:38;4.45;;;1.90;;
43676;SDS011;29275;48.800;18.102;2022-12-11T05:51:40;2.05;;;1.65;;
43676;SDS011;29275;48.800;18.102;2022-12-11T05:54:43;2.92;;;1.23;;
43676;SDS011;29275;48.800;18.102;2022-12-11T05:57:45;3.83;;;1.73;;
43676;SDS011;29275;48.800;18.102;2022-12-11T06:00:47;2.33;;;0.93;;
43676;SDS011;29275;48.800;18.102;2022-12-11T06:03:50;2.28;;;1.15;;
43676;SDS011;29275;48.800;18.102;2022-12-11T06:06:53;2.08;;;1.27;;
43676;SDS011;29275;48.800;18.102;2022-12-11T06:09:55;2.85;;;1.15;;
43676;SDS011;29275;48.800;18.102;2022-12-11T06:12:59;2.05;;;0.93;;
43676;SDS011;29275;48.800;18.102;2022-12-11T06:16:02;1.42;;;0.77;;
43676;SDS011;29275;48.800;18.102;2022-12-11T06:19:11;5.40;;;1.30;;
43676;SDS011;29275;48.800;18.102;2022-12-11T06:22:21;0.55;;;0.45;;
43676;SDS011;29275;48.800;18.102;2022-12-11T06:25:23;0.93;;;0.50;;
43676;SDS011;29275;48.800;18.102;2022-12-11T06:28:25;1.40;;;0.52;;
43676;SDS011;29275;48.800;18.102;2022-12-11T06:31:27;1.80;;;0.80;;
43676;SDS011;29275;48.800;18.102;2022-12-11T06:34:29;1.40;;;0.75;;
43676;SDS011;29275;48.800;18.102;2022-12-11T06:37:31;3.95;;;0.63;;
43676;SDS011;29275;48.800;18.102;2022-12-11T06:40:36;1.17;;;0.60;;
43676;SDS011;29275;48.800;18.102;2022-12-11T06:43:40;1.88;;;0.88;;
43676;SDS011;29275;48.800;18.102;2022-12-11T06:46:43;3.25;;;1.02;;
43676;SDS011;29275;48.800;18.102;2022-12-11T06:49:46;2.95;;;0.50;;
43676;SDS011;29275;48.800;18.102;2022-12-11T06:52:48;1.27;;;0.80;;
43676;SDS011;29275;48.800;18.102;2022-12-11T06:55:54;3.22;;;1.42;;
43676;SDS011;29275;48.800;18.102;2022-12-11T06:58:56;0.65;;;0.30;;
43676;SDS011;29275;48.800;18.102;2022-12-11T07:02:06;4.65;;;0.65;;
43676;SDS011;29275;48.800;18.102;2022-12-11T07:05:08;0.73;;;0.43;;
43676;SDS011;29275;48.800;18.102;2022-12-11T07:08:11;1.60;;;0.88;;
43676;SDS011;29275;48.800;18.102;2022-12-11T07:11:14;1.02;;;0.57;;
43676;SDS011;29275;48.800;18.102;2022-12-11T07:14:17;1.33;;;1.05;;
43676;SDS011;29275;48.800;18.102;2022-12-11T07:17:21;1.52;;;0.50;;
43676;SDS011;29275;48.800;18.102;2022-12-11T07:20:23;2.80;;;0.60;;
43676;SDS011;29275;48.800;18.102;2022-12-11T07:23:26;1.73;;;0.90;;
43676;SDS011;29275;48.800;18.102;2022-12-11T07:26:29;1.63;;;1.02;;
43676;SDS011;29275;48.800;18.102;2022-12-11T07:29:31;1.55;;;1.00;;
43676;SDS011;29275;48.800;18.102;2022-12-11T07:32:33;1.23;;;0.85;;
43676;SDS011;29275;48.800;18.102;2022-12-11T07:35:36;1.73;;;0.80;;
43676;SDS011;29275;48.800;18.102;2022-12-11T07:38:39;0.47;;;0.47;;
43676;SDS011;29275;48.800;18.102;2022-12-11T07:41:41;1.15;;;0.60;;
43676;SDS011;29275;48.800;18.102;2022-12-11T07:44:44;1.90;;;1.08;;
43676;SDS011;29275;48.800;18.102;2022-12-11T07:47:47;0.65;;;0.43;;
43676;SDS011;29275;48.800;18.102;2022-12-11T07:50:49;1.25;;;0.43;;
43676;SDS011;29275;48.800;18.102;2022-12-11T07:53:52;1.50;;;0.68;;
43676;SDS011;29275;48.800;18.102;2022-12-11T07:56:57;2.83;;;1.00;;
43676;SDS011;29275;48.800;18.102;2022-12-11T07:59:59;0.77;;;0.60;;
43676;SDS011;29275;48.800;18.102;2022-12-11T08:03:01;1.77;;;0.82;;
43676;SDS011;29275;48.800;18.102;2022-12-11T08:06:03;1.40;;;0.68;;
43676;SDS011;29275;48.800;18.102;2022-12-11T08:09:07;1.23;;;0.70;;
43676;SDS011;29275;48.800;18.102;2022-12-11T08:12:11;1.65;;;0.70;;
43676;SDS011;29275;48.800;18.102;2022-12-11T08:15:14;1.63;;;1.08;;
43676;SDS011;29275;48.800;18.102;2022-12-11T08:18:17;1.73;;;0.80;;
43676;SDS011;29275;48.800;18.102;2022-12-11T08:24:22;1.77;;;1.00;;
43676;SDS011;29275;48.800;18.102;2022-12-11T08:27:24;2.50;;;0.98;;
43676;SDS011;29275;48.800;18.102;2022-12-11T08:30:28;1.33;;;0.70;;
43676;SDS011;29275;48.800;18.102;2022-12-11T08:33:31;1.60;;;0.90;;
43676;SDS011;29275;48.800;18.102;2022-12-11T08:36:33;1.67;;;1.08;;
43676;SDS011;29275;48.800;18.102;2022-12-11T08:39:35;2.13;;;1.02;;
43676;SDS011;29275;48.800;18.102;2022-12-11T08:42:37;3.17;;;1.25;;
43676;SDS011;29275;48.800;18.102;2022-12-11T08:45:39;1.05;;;0.70;;
43676;SDS011;29275;48.800;18.102;2022-12-11T08:48:43;1.48;;;0.57;;
43676;SDS011;29275;48.800;18.102;2022-12-11T08:51:45;1.10;;;0.68;;
43676;SDS011;29275;48.800;18.102;2022-12-11T08:54:48;2.90;;;1.73;;
43676;SDS011;29275;48.800;18.102;2022-12-11T08:57:50;1.95;;;0.80;;
43676;SDS011;29275;48.800;18.102;2022-12-11T09:00:52;1.58;;;1.15;;
43676;SDS011;29275;48.800;18.102;2022-12-11T09:03:54;4.30;;;1.50;;
43676;SDS011;29275;48.800;18.102;2022-12-11T09:06:57;3.13;;;1.60;;
43676;SDS011;29275;48.800;18.102;2022-12-11T09:09:59;1.25;;;1.05;;
43676;SDS011;29275;48.800;18.102;2022-12-11T09:13:01;2.10;;;0.93;;
43676;SDS011;29275;48.800;18.102;2022-12-11T09:16:04;2.97;;;1.35;;
43676;SDS011;29275;48.800;18.102;2022-12-11T09:19:08;1.23;;;0.88;;
43676;SDS011;29275;48.800;18.102;2022-12-11T09:22:15;2.17;;;1.77;;
43676;SDS011;29275;48.800;18.102;2022-12-11T09:25:17;1.27;;;0.80;;
43676;SDS011;29275;48.800;18.102;2022-12-11T09:28:20;2.38;;;1.45;;
43676;SDS011;29275;48.800;18.102;2022-12-11T09:31:24;4.00;;;1.45;;
43676;SDS011;29275;48.800;18.102;2022-12-11T09:37:43;1.95;;;0.90;;
43676;SDS011;29275;48.800;18.102;2022-12-11T09:40:45;0.95;;;0.82;;
43676;SDS011;29275;48.800;18.102;2022-12-11T09:44:08;1.98;;;1.15;;
43676;SDS011;29275;48.800;18.102;2022-12-11T09:47:33;4.78;;;2.45;;
43676;SDS011;29275;48.800;18.102;2022-12-11T09:50:37;3.42;;;1.45;;
43676;SDS011;29275;48.800;18.102;2022-12-11T09:53:41;2.17;;;1.00;;
43676;SDS011;29275;48.800;18.102;2022-12-11T09:56:51;1.55;;;1.05;;
43676;SDS011;29275;48.800;18.102;2022-12-11T10:00:21;1.17;;;0.77;;
43676;SDS011;29275;48.800;18.102;2022-12-11T10:17:09;0.90;;;0.70;;
43676;SDS011;29275;48.800;18.102;2022-12-11T10:23:35;3.92;;;1.20;;
43676;SDS011;29275;48.800;18.102;2022-12-11T10:26:41;4.53;;;1.27;;
43676;SDS011;29275;48.800;18.102;2022-12-11T10:29:45;4.60;;;1.60;;
43676;SDS011;29275;48.800;18.102;2022-12-11T10:35:54;4.32;;;1.95;;
43676;SDS011;29275;48.800;18.102;2022-12-11T10:38:59;1.92;;;1.38;;
43676;SDS011;29275;48.800;18.102;2022-12-11T10:42:01;1.55;;;1.05;;
43676;SDS011;29275;48.800;18.102;2022-12-11T10:45:18;5.07;;;2.58;;
43676;SDS011;29275;48.800;18.102;2022-12-11T10:48:20;2.60;;;1.42;;
43676;SDS011;29275;48.800;18.102;2022-12-11T10:51:33;6.78;;;1.67;;
43676;SDS011;29275;48.800;18.102;2022-12-11T10:54:40;2.92;;;1.63;;
43676;SDS011;29275;48.800;18.102;2022-12-11T10:57:45;3.05;;;1.52;;
43676;SDS011;29275;48.800;18.102;2022-12-11T11:01:06;4.25;;;1.73;;
43676;SDS011;29275;48.800;18.102;2022-12-11T11:04:19;4.28;;;2.00;;
43676;SDS011;29275;48.800;18.102;2022-12-11T11:07:27;3.40;;;0.95;;
43676;SDS011;29275;48.800;18.102;2022-12-11T11:10:34;1.75;;;1.30;;
43676;SDS011;29275;48.800;18.102;2022-12-11T11:13:37;5.90;;;2.60;;
43676;SDS011;29275;48.800;18.102;2022-12-11T11:16:42;1.83;;;1.30;;
43676;SDS011;29275;48.800;18.102;2022-12-11T11:19:48;6.20;;;2.63;;
43676;SDS011;29275;48.800;18.102;2022-12-11T11:22:55;2.35;;;1.05;;
43676;SDS011;29275;48.800;18.102;2022-12-11T11:26:00;3.28;;;1.73;;
43676;SDS011;29275;48.800;18.102;2022-12-11T11:29:02;4.25;;;2.08;;
43676;SDS011;29275;48.800;18.102;2022-12-11T11:32:39;5.75;;;2.03;;
43676;SDS011;29275;48.800;18.102;2022-12-11T11:35:53;1.63;;;1.33;;
43676;SDS011;29275;48.800;18.102;2022-12-11T11:45:23;4.18;;;2.80;;
43676;SDS011;29275;48.800;18.102;2022-12-11T11:51:33;3.25;;;1.75;;
43676;SDS011;29275;48.800;18.102;2022-12-11T11:54:40;7.47;;;3.20;;
43676;SDS011;29275;48.800;18.102;2022-12-11T11:58:17;3.13;;;1.73;;
43676;SDS011;29275;48.800;18.102;2022-12-11T12:01:26;3.70;;;2.38;;
43676;SDS011;29275;48.800;18.102;2022-12-11T12:04:31;4.88;;;1.75;;
43676;SDS011;29275;48.800;18.102;2022-12-11T12:07:47;4.53;;;1.92;;
43676;SDS011;29275;48.800;18.102;2022-12-11T12:14:31;2.17;;;1.23;;
43676;SDS011;29275;48.800;18.102;2022-12-11T12:17:56;3.33;;;2.15;;
43676;SDS011;29275;48.800;18.102;2022-12-11T12:31:23;3.03;;;1.73;;
43676;SDS011;29275;48.800;18.102;2022-12-11T12:38:04;2.97;;;1.83;;
43676;SDS011;29275;48.800;18.102;2022-12-11T12:41:17;5.90;;;2.50;;
43676;SDS011;29275;48.800;18.102;2022-12-11T12:44:25;3.55;;;1.75;;
43676;SDS011;29275;48.800;18.102;2022-12-11T12:47:31;2.40;;;1.67;;
43676;SDS011;29275;48.800;18.102;2022-12-11T12:50:41;4.10;;;1.73;;
43676;SDS011;29275;48.800;18.102;2022-12-11T12:53:48;2.70;;;1.45;;
43676;SDS011;29275;48.800;18.102;2022-12-11T12:56:58;3.42;;;1.80;;
43676;SDS011;29275;48.800;18.102;2022-12-11T13:00:04;2.55;;;1.30;;
43676;SDS011;29275;48.800;18.102;2022-12-11T13:03:15;5.25;;;2.08;;
43676;SDS011;29275;48.800;18.102;2022-12-11T13:06:32;2.70;;;2.20;;
43676;SDS011;29275;48.800;18.102;2022-12-11T13:09:36;3.10;;;1.65;;
43676;SDS011;29275;48.800;18.102;2022-12-11T13:12:44;3.85;;;2.65;;
43676;SDS011;29275;48.800;18.102;2022-12-11T13:15:47;4.43;;;2.00;;
43676;SDS011;29275;48.800;18.102;2022-12-11T13:18:50;1.48;;;1.05;;
43676;SDS011;29275;48.800;18.102;2022-12-11T13:21:55;6.15;;;2.78;;
43676;SDS011;29275;48.800;18.102;2022-12-11T13:25:16;3.13;;;2.00;;
43676;SDS011;29275;48.800;18.102;2022-12-11T13:28:31;2.00;;;1.48;;
43676;SDS011;29275;48.800;18.102;2022-12-11T13:31:54;2.80;;;1.40;;
43676;SDS011;29275;48.800;18.102;2022-12-11T13:34:59;1.48;;;1.02;;
43676;SDS011;29275;48.800;18.102;2022-12-11T13:38:06;3.45;;;2.22;;
43676;SDS011;29275;48.800;18.102;2022-12-11T13:41:16;4.00;;;1.30;;
43676;SDS011;29275;48.800;18.102;2022-12-11T13:44:23;2.85;;;1.42;;
43676;SDS011;29275;48.800;18.102;2022-12-11T13:47:27;3.35;;;1.83;;
43676;SDS011;29275;48.800;18.102;2022-12-11T13:50:32;4.22;;;1.83;;
43676;SDS011;29275;48.800;18.102;2022-12-11T13:53:35;3.65;;;2.17;;
43676;SDS011;29275;48.800;18.102;2022-12-11T13:56:40;4.45;;;2.13;;
43676;SDS011;29275;48.800;18.102;2022-12-11T14:00:30;6.03;;;2.28;;
43676;SDS011;29275;48.800;18.102;2022-12-11T14:03:33;4.43;;;3.10;;
43676;SDS011;29275;48.800;18.102;2022-12-11T14:06:36;4.43;;;2.45;;
43676;SDS011;29275;48.800;18.102;2022-12-11T14:09:43;7.00;;;2.42;;
43676;SDS011;29275;48.800;18.102;2022-12-11T14:12:50;1.88;;;1.50;;
43676;SDS011;29275;48.800;18.102;2022-12-11T14:16:00;3.90;;;2.53;;
43676;SDS011;29275;48.800;18.102;2022-12-11T14:19:05;6.80;;;2.22;;
43676;SDS011;29275;48.800;18.102;2022-12-11T14:22:15;4.03;;;1.83;;
43676;SDS011;29275;48.800;18.102;2022-12-11T14:25:21;3.20;;;2.35;;
43676;SDS011;29275;48.800;18.102;2022-12-11T14:28:27;4.35;;;2.30;;
43676;SDS011;29275;48.800;18.102;2022-12-11T14:31:35;5.43;;;2.17;;
43676;SDS011;29275;48.800;18.102;2022-12-11T14:34:42;2.80;;;1.70;;
43676;SDS011;29275;48.800;18.102;2022-12-11T14:37:47;4.55;;;2.53;;
43676;SDS011;29275;48.800;18.102;2022-12-11T14:40:51;5.85;;;1.80;;
43676;SDS011;29275;48.800;18.102;2022-12-11T14:43:56;6.00;;;3.17;;
43676;SDS011;29275;48.800;18.102;2022-12-11T14:47:04;5.82;;;1.63;;
43676;SDS011;29275;48.800;18.102;2022-12-11T14:53:39;3.10;;;2.50;;
43676;SDS011;29275;48.800;18.102;2022-12-11T14:56:45;3.25;;;1.85;;
43676;SDS011;29275;48.800;18.102;2022-12-11T14:59:48;2.85;;;2.28;;
43676;SDS011;29275;48.800;18.102;2022-12-11T15:02:56;5.78;;;2.67;;
43676;SDS011;29275;48.800;18.102;2022-12-11T15:06:20;7.90;;;2.45;;
43676;SDS011;29275;48.800;18.102;2022-12-11T15:12:34;7.03;;;2.95;;
43676;SDS011;29275;48.800;18.102;2022-12-11T15:15:45;3.67;;;1.85;;
43676;SDS011;29275;48.800;18.102;2022-12-11T15:18:49;4.72;;;3.13;;
43676;SDS011;29275;48.800;18.102;2022-12-11T15:21:53;5.18;;;2.75;;
43676;SDS011;29275;48.800;18.102;2022-12-11T15:24:57;6.63;;;2.63;;
43676;SDS011;29275;48.800;18.102;2022-12-11T15:27:59;5.78;;;2.22;;
43676;SDS011;29275;48.800;18.102;2022-12-11T15:34:32;6.07;;;2.53;;
43676;SDS011;29275;48.800;18.102;2022-12-11T15:37:55;3.75;;;2.17;;
43676;SDS011;29275;48.800;18.102;2022-12-11T15:41:00;2.75;;;2.45;;
43676;SDS011;29275;48.800;18.102;2022-12-11T15:44:02;6.00;;;3.33;;
43676;SDS011;29275;48.800;18.102;2022-12-11T15:47:12;4.43;;;3.17;;
43676;SDS011;29275;48.800;18.102;2022-12-11T15:53:18;4.68;;;3.17;;
43676;SDS011;29275;48.800;18.102;2022-12-11T15:56:21;4.55;;;3.22;;
43676;SDS011;29275;48.800;18.102;2022-12-11T15:59:23;6.00;;;2.65;;
43676;SDS011;29275;48.800;18.102;2022-12-11T16:02:25;5.13;;;2.03;;
43676;SDS011;29275;48.800;18.102;2022-12-11T16:05:29;3.75;;;2.10;;
43676;SDS011;29275;48.800;18.102;2022-12-11T16:08:31;7.57;;;3.38;;
43676;SDS011;29275;48.800;18.102;2022-12-11T16:11:34;3.95;;;2.50;;
43676;SDS011;29275;48.800;18.102;2022-12-11T16:14:36;5.20;;;1.70;;
43676;SDS011;29275;48.800;18.102;2022-12-11T16:17:39;1.83;;;1.58;;
43676;SDS011;29275;48.800;18.102;2022-12-11T16:20:43;4.47;;;2.38;;
43676;SDS011;29275;48.800;18.102;2022-12-11T16:23:46;3.78;;;2.55;;
43676;SDS011;29275;48.800;18.102;2022-12-11T16:26:48;4.85;;;2.85;;
43676;SDS011;29275;48.800;18.102;2022-12-11T16:29:50;1.65;;;1.33;;
43676;SDS011;29275;48.800;18.102;2022-12-11T16:32:53;3.78;;;2.00;;
43676;SDS011;29275;48.800;18.102;2022-12-11T16:35:56;3.83;;;2.13;;
43676;SDS011;29275;48.800;18.102;2022-12-11T16:38:58;3.40;;;1.77;;
43676;SDS011;29275;48.800;18.102;2022-12-11T16:42:02;2.55;;;2.05;;
43676;SDS011;29275;48.800;18.102;2022-12-11T16:45:05;2.60;;;1.02;;
43676;SDS011;29275;48.800;18.102;2022-12-11T16:48:11;3.22;;;2.08;;
43676;SDS011;29275;48.800;18.102;2022-12-11T16:51:13;3.25;;;2.08;;
43676;SDS011;29275;48.800;18.102;2022-12-11T16:54:16;4.43;;;2.58;;
43676;SDS011;29275;48.800;18.102;2022-12-11T16:57:19;3.20;;;1.83;;
43676;SDS011;29275;48.800;18.102;2022-12-11T17:00:21;4.32;;;2.33;;
43676;SDS011;29275;48.800;18.102;2022-12-11T17:03:24;3.78;;;2.00;;
43676;SDS011;29275;48.800;18.102;2022-12-11T17:06:28;6.22;;;3.88;;
43676;SDS011;29275;48.800;18.102;2022-12-11T17:09:31;4.68;;;2.28;;
43676;SDS011;29275;48.800;18.102;2022-12-11T17:12:33;5.38;;;2.88;;
43676;SDS011;29275;48.800;18.102;2022-12-11T17:15:40;2.55;;;2.00;;
43676;SDS011;29275;48.800;18.102;2022-12-11T17:18:45;3.20;;;1.95;;
43676;SDS011;29275;48.800;18.102;2022-12-11T17:21:48;8.23;;;4.05;;
43676;SDS011;29275;48.800;18.102;2022-12-11T17:24:52;5.80;;;2.33;;
43676;SDS011;29275;48.800;18.102;2022-12-11T17:27:55;8.93;;;2.28;;
43676;SDS011;29275;48.800;18.102;2022-12-11T17:30:57;7.68;;;3.45;;
43676;SDS011;29275;48.800;18.102;2022-12-11T17:33:59;5.03;;;2.85;;
43676;SDS011;29275;48.800;18.102;2022-12-11T17:37:02;3.63;;;2.55;;
43676;SDS011;29275;48.800;18.102;2022-12-11T17:40:04;6.25;;;3.38;;
43676;SDS011;29275;48.800;18.102;2022-12-11T17:43:07;7.07;;;3.22;;
43676;SDS011;29275;48.800;18.102;2022-12-11T17:46:10;4.25;;;2.15;;
43676;SDS011;29275;48.800;18.102;2022-12-11T17:49:14;6.20;;;2.08;;
43676;SDS011;29275;48.800;18.102;2022-12-11T17:52:16;6.50;;;2.45;;
43676;SDS011;29275;48.800;18.102;2022-12-11T17:55:19;4.80;;;2.25;;
43676;SDS011;29275;48.800;18.102;2022-12-11T17:58:21;4.72;;;2.92;;
43676;SDS011;29275;48.800;18.102;2022-12-11T18:01:24;4.03;;;2.30;;
43676;SDS011;29275;48.800;18.102;2022-12-11T18:04:27;5.38;;;2.55;;
43676;SDS011;29275;48.800;18.102;2022-12-11T18:07:29;7.07;;;3.50;;
43676;SDS011;29275;48.800;18.102;2022-12-11T18:10:34;3.45;;;2.78;;
43676;SDS011;29275;48.800;18.102;2022-12-11T18:13:37;5.57;;;2.90;;
43676;SDS011;29275;48.800;18.102;2022-12-11T18:16:40;3.55;;;1.50;;
43676;SDS011;29275;48.800;18.102;2022-12-11T18:19:42;4.07;;;2.50;;
43676;SDS011;29275;48.800;18.102;2022-12-11T18:22:47;4.18;;;2.20;;
43676;SDS011;29275;48.800;18.102;2022-12-11T18:25:49;4.18;;;2.92;;
43676;SDS011;29275;48.800;18.102;2022-12-11T18:28:51;12.13;;;5.80;;
43676;SDS011;29275;48.800;18.102;2022-12-11T18:31:54;3.45;;;1.95;;
43676;SDS011;29275;48.800;18.102;2022-12-11T18:34:57;5.28;;;3.78;;
43676;SDS011;29275;48.800;18.102;2022-12-11T18:38:00;4.28;;;2.17;;
43676;SDS011;29275;48.800;18.102;2022-12-11T18:41:03;4.07;;;2.58;;
43676;SDS011;29275;48.800;18.102;2022-12-11T18:44:07;5.18;;;2.80;;
43676;SDS011;29275;48.800;18.102;2022-12-11T18:47:10;5.22;;;2.28;;
43676;SDS011;29275;48.800;18.102;2022-12-11T18:50:13;6.95;;;2.33;;
43676;SDS011;29275;48.800;18.102;2022-12-11T18:53:16;5.57;;;2.17;;
43676;SDS011;29275;48.800;18.102;2022-12-11T18:56:20;7.47;;;2.65;;
43676;SDS011;29275;48.800;18.102;2022-12-11T18:59:23;3.80;;;3.00;;
43676;SDS011;29275;48.800;18.102;2022-12-11T19:02:26;6.95;;;3.92;;
43676;SDS011;29275;48.800;18.102;2022-12-11T19:05:29;3.63;;;2.50;;
43676;SDS011;29275;48.800;18.102;2022-12-11T19:08:32;6.40;;;4.15;;
43676;SDS011;29275;48.800;18.102;2022-12-11T19:11:39;20.58;;;6.57;;
43676;SDS011;29275;48.800;18.102;2022-12-11T19:14:43;8.32;;;4.05;;
43676;SDS011;29275;48.800;18.102;2022-12-11T19:17:47;9.13;;;4.00;;
43676;SDS011;29275;48.800;18.102;2022-12-11T19:20:51;8.20;;;3.80;;
43676;SDS011;29275;48.800;18.102;2022-12-11T19:27:12;9.13;;;3.28;;
43676;SDS011;29275;48.800;18.102;2022-12-11T19:30:19;5.22;;;3.00;;
43676;SDS011;29275;48.800;18.102;2022-12-11T19:33:21;8.57;;;3.78;;
43676;SDS011;29275;48.800;18.102;2022-12-11T19:36:27;8.55;;;3.80;;
43676;SDS011;29275;48.800;18.102;2022-12-11T19:39:31;6.57;;;3.67;;